Kezdőlap
METAR-TAF:

METAR-TAF

Repülőterek :

Oral, Kazahsztán

földrajzi szélesség: 51-15N, földrajzi hosszúság: 051-17E, magasság: 36 m

Jelenlegi meteorológiai megfigyelések

A jelentés 10 perccel ezelõtt készült, 05:30 UTC
Délkeleti szél 8 kt
Hőmérséklet -7°C
Páratartalom 86%
Légköri nyomás 1021 hPa
Látótávolság 10 km, vagy több
felhőtlen 1500 m magasságban, és nincs gomolyfelhõ

METAR: UARR 090530Z 14004MPS CAVOK M07/M09 Q1021 R22/710265 NOSIG RMK QFE762/1017

Idő: 10:40 (05:40 UTC)

Előrejelzés

A jelentés 40 perccel ezelõtt készült, 05:00 UTC
Az előrejelzés 09-én 06 óra UTC és 09-én 15 óra UTC között érvényes
Különbözõ irányokból fújó szél 4 kt
Látótávolság 10 km, vagy több
Szórványos felhőzet 3300 lábon
09-én 06 óra UTC és 09-én 09 óra UTC között ideiglenes
Dél-délkeleti szél 10 kt

TAF: UARR 090500Z 0906/0915 VRB02MPS 9999 SCT033 TEMPO 0906/0909 15005MPS

Meteorológiai megfigyelések és előrejelzések több, mint 4000 repülőtéren (METAR és TAF jelentéseket).

A térképen piros és sárga pontok jelzik az elérhető meteorológiai állomásokat.

Mozgassa az egeret a pont fölött, hogy megjelenjen az állomás neve.

Azután kattintson az időjárási megfigyelések és előrejelzések megtekintéséhez.

A térkép megváltoztatása: kattintson a fekete keresztel jelölt zöld gombra ráközelítéshez, a vonallal jelölt zöld gombra távolításhoz, vagy a zöld nyilakra a szomszédos térképek eléréséhez.


METAR-TAF: